sensor_id;sensor_type;location;lat;lon;timestamp;temperature;humidity
51486;DHT22;37565;51.352;6.412;2022-12-18T12:13:21;16.30;73.50
51486;DHT22;37565;51.352;6.412;2022-12-18T12:16:02;16.60;74.30
51486;DHT22;37565;51.352;6.412;2022-12-18T12:18:38;16.50;74.60
51486;DHT22;37565;51.352;6.412;2022-12-18T12:21:12;16.50;75.20
51486;DHT22;37565;51.352;6.412;2022-12-18T12:23:49;16.50;75.30
51486;DHT22;37565;51.352;6.412;2022-12-18T12:26:26;16.50;75.20
51486;DHT22;37565;51.352;6.412;2022-12-18T12:29:09;16.50;75.90
51486;DHT22;37565;51.352;6.412;2022-12-18T12:31:58;16.60;76.40
51486;DHT22;37565;51.352;6.412;2022-12-18T12:34:34;16.60;75.60
51486;DHT22;37565;51.352;6.412;2022-12-18T12:37:13;16.60;76.10
51486;DHT22;37565;51.352;6.412;2022-12-18T12:39:47;16.60;76.10
51486;DHT22;37565;51.352;6.412;2022-12-18T12:42:21;16.60;76.10
51486;DHT22;37565;51.352;6.412;2022-12-18T12:45:25;16.60;76.90
51486;DHT22;37565;51.352;6.412;2022-12-18T12:47:57;16.60;77.10
51486;DHT22;37565;51.352;6.412;2022-12-18T12:50:26;16.70;77.20
51486;DHT22;37565;51.352;6.412;2022-12-18T12:52:55;16.80;77.30
51486;DHT22;37565;51.352;6.412;2022-12-18T12:55:26;16.80;77.00
51486;DHT22;37565;51.352;6.412;2022-12-18T12:57:59;16.90;77.10
51486;DHT22;37565;51.352;6.412;2022-12-18T13:00:36;17.00;77.20
51486;DHT22;37565;51.352;6.412;2022-12-18T13:03:13;17.00;76.60
51486;DHT22;37565;51.352;6.412;2022-12-18T13:05:48;17.00;76.40
51486;DHT22;37565;51.352;6.412;2022-12-18T13:08:24;17.00;75.90
51486;DHT22;37565;51.352;6.412;2022-12-18T13:10:55;16.90;76.00
51486;DHT22;37565;51.352;6.412;2022-12-18T13:13:49;16.90;75.80
51486;DHT22;37565;51.352;6.412;2022-12-18T13:16:21;16.90;76.50
51486;DHT22;37565;51.352;6.412;2022-12-18T13:18:50;16.90;76.20
51486;DHT22;37565;51.352;6.412;2022-12-18T13:21:23;16.90;76.60
51486;DHT22;37565;51.352;6.412;2022-12-18T13:23:51;16.90;77.00
51486;DHT22;37565;51.352;6.412;2022-12-18T13:26:30;16.90;76.70
51486;DHT22;37565;51.352;6.412;2022-12-18T13:29:00;16.90;77.10
51486;DHT22;37565;51.352;6.412;2022-12-18T13:34:37;16.90;77.10
51486;DHT22;37565;51.352;6.412;2022-12-18T13:37:39;16.90;76.60
51486;DHT22;37565;51.352;6.412;2022-12-18T13:43:41;16.90;77.00
51486;DHT22;37565;51.352;6.412;2022-12-18T13:46:21;16.90;77.20
51486;DHT22;37565;51.352;6.412;2022-12-18T13:48:56;16.80;77.60
51486;DHT22;37565;51.352;6.412;2022-12-18T13:51:26;16.80;77.60
51486;DHT22;37565;51.352;6.412;2022-12-18T13:53:57;16.90;78.40
51486;DHT22;37565;51.352;6.412;2022-12-18T13:56:28;17.00;78.10
51486;DHT22;37565;51.352;6.412;2022-12-18T13:59:13;17.00;77.90
51486;DHT22;37565;51.352;6.412;2022-12-18T14:01:47;17.10;77.90
51486;DHT22;37565;51.352;6.412;2022-12-18T14:04:27;17.00;77.80
51486;DHT22;37565;51.352;6.412;2022-12-18T14:07:03;17.10;77.90
51486;DHT22;37565;51.352;6.412;2022-12-18T14:09:36;17.20;77.70
51486;DHT22;37565;51.352;6.412;2022-12-18T14:12:06;17.20;77.20
51486;DHT22;37565;51.352;6.412;2022-12-18T14:14:53;17.20;77.10
51486;DHT22;37565;51.352;6.412;2022-12-18T14:17:22;17.10;77.10
51486;DHT22;37565;51.352;6.412;2022-12-18T14:19:51;17.00;77.80
51486;DHT22;37565;51.352;6.412;2022-12-18T14:22:22;17.00;77.80
51486;DHT22;37565;51.352;6.412;2022-12-18T14:25:05;17.00;78.10
51486;DHT22;37565;51.352;6.412;2022-12-18T14:27:37;17.00;77.90
51486;DHT22;37565;51.352;6.412;2022-12-18T14:30:24;17.00;78.10
51486;DHT22;37565;51.352;6.412;2022-12-18T14:33:20;17.00;78.20
51486;DHT22;37565;51.352;6.412;2022-12-18T14:35:55;17.10;78.10
51486;DHT22;37565;51.352;6.412;2022-12-18T14:38:27;17.10;78.10
51486;DHT22;37565;51.352;6.412;2022-12-18T14:40:59;17.00;77.80
51486;DHT22;37565;51.352;6.412;2022-12-18T14:43:31;17.00;77.70
51486;DHT22;37565;51.352;6.412;2022-12-18T14:45:59;17.00;77.90
51486;DHT22;37565;51.352;6.412;2022-12-18T14:48:36;17.00;78.20
51486;DHT22;37565;51.352;6.412;2022-12-18T14:51:06;17.00;78.20
51486;DHT22;37565;51.352;6.412;2022-12-18T14:53:38;17.10;78.30
51486;DHT22;37565;51.352;6.412;2022-12-18T14:56:15;17.10;78.90
51486;DHT22;37565;51.352;6.412;2022-12-18T14:58:46;17.00;78.80
51486;DHT22;37565;51.352;6.412;2022-12-18T15:01:19;16.90;79.60
51486;DHT22;37565;51.352;6.412;2022-12-18T15:03:48;17.00;80.30
51486;DHT22;37565;51.352;6.412;2022-12-18T15:06:18;17.00;81.10
51486;DHT22;37565;51.352;6.412;2022-12-18T15:08:53;17.10;82.00
51486;DHT22;37565;51.352;6.412;2022-12-18T15:11:45;17.10;82.40
51486;DHT22;37565;51.352;6.412;2022-12-18T15:14:30;17.10;83.10
51486;DHT22;37565;51.352;6.412;2022-12-18T15:16:59;17.10;83.30
51486;DHT22;37565;51.352;6.412;2022-12-18T15:19:34;17.10;83.70
51486;DHT22;37565;51.352;6.412;2022-12-18T15:22:03;17.10;84.50
51486;DHT22;37565;51.352;6.412;2022-12-18T15:24:34;17.10;84.90
51486;DHT22;37565;51.352;6.412;2022-12-18T15:27:01;17.10;85.30
51486;DHT22;37565;51.352;6.412;2022-12-18T15:29:29;17.10;85.50
51486;DHT22;37565;51.352;6.412;2022-12-18T15:32:02;17.10;85.50
51486;DHT22;37565;51.352;6.412;2022-12-18T15:34:31;17.10;86.20
51486;DHT22;37565;51.352;6.412;2022-12-18T15:37:00;17.20;85.60
51486;DHT22;37565;51.352;6.412;2022-12-18T15:39:28;17.30;85.40
51486;DHT22;37565;51.352;6.412;2022-12-18T15:41:57;17.20;86.00
51486;DHT22;37565;51.352;6.412;2022-12-18T15:44:43;17.20;87.40
51486;DHT22;37565;51.352;6.412;2022-12-18T15:47:12;17.10;87.70
51486;DHT22;37565;51.352;6.412;2022-12-18T15:49:40;17.10;87.60
51486;DHT22;37565;51.352;6.412;2022-12-18T15:52:11;17.10;87.80
51486;DHT22;37565;51.352;6.412;2022-12-18T15:54:39;17.10;87.30
51486;DHT22;37565;51.352;6.412;2022-12-18T15:57:26;17.10;87.30
51486;DHT22;37565;51.352;6.412;2022-12-18T15:59:55;17.20;87.00
51486;DHT22;37565;51.352;6.412;2022-12-18T16:02:25;17.20;86.90
51486;DHT22;37565;51.352;6.412;2022-12-18T16:04:54;17.30;87.10
51486;DHT22;37565;51.352;6.412;2022-12-18T16:07:22;17.00;86.40
51486;DHT22;37565;51.352;6.412;2022-12-18T16:09:56;17.00;87.10
51486;DHT22;37565;51.352;6.412;2022-12-18T16:12:27;17.10;87.00
51486;DHT22;37565;51.352;6.412;2022-12-18T16:14:55;17.10;86.10
51486;DHT22;37565;51.352;6.412;2022-12-18T16:17:22;17.10;86.50
51486;DHT22;37565;51.352;6.412;2022-12-18T16:19:50;17.00;86.90
51486;DHT22;37565;51.352;6.412;2022-12-18T16:22:21;17.00;85.80
51486;DHT22;37565;51.352;6.412;2022-12-18T16:24:49;17.10;86.50
51486;DHT22;37565;51.352;6.412;2022-12-18T16:27:18;17.00;86.70
51486;DHT22;37565;51.352;6.412;2022-12-18T16:29:48;17.00;86.40
51486;DHT22;37565;51.352;6.412;2022-12-18T16:32:19;17.10;86.70
51486;DHT22;37565;51.352;6.412;2022-12-18T16:34:47;17.20;86.40
51486;DHT22;37565;51.352;6.412;2022-12-18T16:37:16;17.20;85.70
51486;DHT22;37565;51.352;6.412;2022-12-18T16:39:44;17.20;85.80
51486;DHT22;37565;51.352;6.412;2022-12-18T16:42:14;17.20;85.60
51486;DHT22;37565;51.352;6.412;2022-12-18T16:44:44;17.30;85.70
51486;DHT22;37565;51.352;6.412;2022-12-18T16:47:14;17.20;84.80
51486;DHT22;37565;51.352;6.412;2022-12-18T16:49:42;17.20;84.70
51486;DHT22;37565;51.352;6.412;2022-12-18T16:52:11;17.20;84.60
51486;DHT22;37565;51.352;6.412;2022-12-18T16:54:39;17.20;84.90
51486;DHT22;37565;51.352;6.412;2022-12-18T16:57:09;17.20;84.80
51486;DHT22;37565;51.352;6.412;2022-12-18T16:59:39;17.20;84.80
51486;DHT22;37565;51.352;6.412;2022-12-18T17:02:14;17.30;84.40
51486;DHT22;37565;51.352;6.412;2022-12-18T17:04:45;17.30;84.50
51486;DHT22;37565;51.352;6.412;2022-12-18T17:07:13;17.20;84.20
51486;DHT22;37565;51.352;6.412;2022-12-18T17:09:41;17.30;84.00
51486;DHT22;37565;51.352;6.412;2022-12-18T17:12:09;17.20;85.00
51486;DHT22;37565;51.352;6.412;2022-12-18T17:14:38;17.20;84.90
51486;DHT22;37565;51.352;6.412;2022-12-18T17:17:06;17.20;84.70
51486;DHT22;37565;51.352;6.412;2022-12-18T17:19:49;17.30;84.20
51486;DHT22;37565;51.352;6.412;2022-12-18T17:22:17;17.30;84.00
51486;DHT22;37565;51.352;6.412;2022-12-18T17:24:45;17.30;83.80
51486;DHT22;37565;51.352;6.412;2022-12-18T17:27:13;17.30;84.40
51486;DHT22;37565;51.352;6.412;2022-12-18T17:29:41;17.20;84.40
51486;DHT22;37565;51.352;6.412;2022-12-18T17:32:14;17.30;85.20
51486;DHT22;37565;51.352;6.412;2022-12-18T17:34:42;17.30;85.10
51486;DHT22;37565;51.352;6.412;2022-12-18T17:37:11;17.40;84.70
51486;DHT22;37565;51.352;6.412;2022-12-18T17:39:39;17.40;84.50
51486;DHT22;37565;51.352;6.412;2022-12-18T17:42:07;17.50;84.40
51486;DHT22;37565;51.352;6.412;2022-12-18T17:44:41;17.60;84.00
51486;DHT22;37565;51.352;6.412;2022-12-18T17:47:09;17.60;83.90
51486;DHT22;37565;51.352;6.412;2022-12-18T17:49:38;17.40;69.00
51486;DHT22;37565;51.352;6.412;2022-12-18T17:52:06;17.20;77.50
51486;DHT22;37565;51.352;6.412;2022-12-18T17:54:36;17.40;78.10
51486;DHT22;37565;51.352;6.412;2022-12-18T17:57:07;17.50;78.40
51486;DHT22;37565;51.352;6.412;2022-12-18T17:59:35;17.60;78.80
51486;DHT22;37565;51.352;6.412;2022-12-18T18:02:02;17.60;79.20
51486;DHT22;37565;51.352;6.412;2022-12-18T18:04:31;17.60;79.40
51486;DHT22;37565;51.352;6.412;2022-12-18T18:06:59;17.70;79.70
51486;DHT22;37565;51.352;6.412;2022-12-18T18:09:27;17.70;79.90
51486;DHT22;37565;51.352;6.412;2022-12-18T18:11:56;17.80;80.10
51486;DHT22;37565;51.352;6.412;2022-12-18T18:14:41;17.80;80.10
51486;DHT22;37565;51.352;6.412;2022-12-18T18:17:09;17.80;80.30
51486;DHT22;37565;51.352;6.412;2022-12-18T18:19:37;17.70;80.40
51486;DHT22;37565;51.352;6.412;2022-12-18T18:22:06;17.70;80.50
51486;DHT22;37565;51.352;6.412;2022-12-18T18:24:34;17.70;80.70
51486;DHT22;37565;51.352;6.412;2022-12-18T18:27:03;17.70;81.00
51486;DHT22;37565;51.352;6.412;2022-12-18T18:29:31;17.70;81.50
51486;DHT22;37565;51.352;6.412;2022-12-18T18:31:59;17.70;80.90
51486;DHT22;37565;51.352;6.412;2022-12-18T18:34:29;17.60;81.30
51486;DHT22;37565;51.352;6.412;2022-12-18T18:37:00;17.50;81.60
51486;DHT22;37565;51.352;6.412;2022-12-18T18:39:28;17.40;82.10
51486;DHT22;37565;51.352;6.412;2022-12-18T18:41:56;17.50;82.10
51486;DHT22;37565;51.352;6.412;2022-12-18T18:44:26;17.50;82.50
51486;DHT22;37565;51.352;6.412;2022-12-18T18:46:54;17.40;82.50
51486;DHT22;37565;51.352;6.412;2022-12-18T18:49:23;17.50;83.20
51486;DHT22;37565;51.352;6.412;2022-12-18T18:51:53;17.50;83.00
51486;DHT22;37565;51.352;6.412;2022-12-18T18:54:23;17.60;82.80
51486;DHT22;37565;51.352;6.412;2022-12-18T18:56:51;17.70;82.70
51486;DHT22;37565;51.352;6.412;2022-12-18T18:59:40;17.70;82.30
51486;DHT22;37565;51.352;6.412;2022-12-18T19:02:10;17.80;82.00
51486;DHT22;37565;51.352;6.412;2022-12-18T19:04:39;17.80;81.80
51486;DHT22;37565;51.352;6.412;2022-12-18T19:07:12;17.90;81.80
51486;DHT22;37565;51.352;6.412;2022-12-18T19:09:55;17.90;81.80
51486;DHT22;37565;51.352;6.412;2022-12-18T19:12:29;17.90;82.50
51486;DHT22;37565;51.352;6.412;2022-12-18T19:15:16;17.90;81.60
51486;DHT22;37565;51.352;6.412;2022-12-18T19:17:44;17.90;81.30
51486;DHT22;37565;51.352;6.412;2022-12-18T19:20:13;17.90;81.30
51486;DHT22;37565;51.352;6.412;2022-12-18T19:22:41;18.00;81.50
51486;DHT22;37565;51.352;6.412;2022-12-18T19:25:20;18.00;81.60
51486;DHT22;37565;51.352;6.412;2022-12-18T19:27:56;18.00;81.50
51486;DHT22;37565;51.352;6.412;2022-12-18T19:30:25;18.00;81.50
51486;DHT22;37565;51.352;6.412;2022-12-18T19:32:53;18.00;81.60
51486;DHT22;37565;51.352;6.412;2022-12-18T19:35:21;17.90;81.90
51486;DHT22;37565;51.352;6.412;2022-12-18T19:37:49;17.90;81.90
51486;DHT22;37565;51.352;6.412;2022-12-18T19:40:17;17.90;81.90
51486;DHT22;37565;51.352;6.412;2022-12-18T19:42:45;17.90;82.00
51486;DHT22;37565;51.352;6.412;2022-12-18T19:45:13;17.90;81.80
51486;DHT22;37565;51.352;6.412;2022-12-18T19:47:43;17.80;81.90
51486;DHT22;37565;51.352;6.412;2022-12-18T19:50:11;17.80;81.70
51486;DHT22;37565;51.352;6.412;2022-12-18T19:52:39;17.70;82.00
51486;DHT22;37565;51.352;6.412;2022-12-18T19:55:08;17.70;82.40
51486;DHT22;37565;51.352;6.412;2022-12-18T19:57:36;17.70;82.80
51486;DHT22;37565;51.352;6.412;2022-12-18T20:00:05;17.70;82.60
51486;DHT22;37565;51.352;6.412;2022-12-18T20:02:33;17.60;82.40
51486;DHT22;37565;51.352;6.412;2022-12-18T20:05:05;17.60;82.30
51486;DHT22;37565;51.352;6.412;2022-12-18T20:07:35;17.60;82.30
51486;DHT22;37565;51.352;6.412;2022-12-18T20:10:07;17.60;82.60
51486;DHT22;37565;51.352;6.412;2022-12-18T20:12:35;17.60;83.00
51486;DHT22;37565;51.352;6.412;2022-12-18T20:15:04;17.60;82.90
51486;DHT22;37565;51.352;6.412;2022-12-18T20:17:32;17.70;82.80
51486;DHT22;37565;51.352;6.412;2022-12-18T20:20:00;17.80;82.60
51486;DHT22;37565;51.352;6.412;2022-12-18T20:22:30;17.80;82.40
51486;DHT22;37565;51.352;6.412;2022-12-18T20:24:58;17.90;82.30
51486;DHT22;37565;51.352;6.412;2022-12-18T20:27:26;17.90;81.90
51486;DHT22;37565;51.352;6.412;2022-12-18T20:29:53;17.90;81.80
51486;DHT22;37565;51.352;6.412;2022-12-18T20:32:23;17.90;81.70
51486;DHT22;37565;51.352;6.412;2022-12-18T20:34:53;18.00;81.50
51486;DHT22;37565;51.352;6.412;2022-12-18T20:37:22;18.00;81.30
51486;DHT22;37565;51.352;6.412;2022-12-18T20:39:51;18.00;81.40
51486;DHT22;37565;51.352;6.412;2022-12-18T20:42:19;18.10;81.20
51486;DHT22;37565;51.352;6.412;2022-12-18T20:44:47;18.10;81.20
51486;DHT22;37565;51.352;6.412;2022-12-18T20:47:15;18.10;81.20
51486;DHT22;37565;51.352;6.412;2022-12-18T20:49:43;18.10;81.20
51486;DHT22;37565;51.352;6.412;2022-12-18T20:52:11;18.10;81.40
51486;DHT22;37565;51.352;6.412;2022-12-18T20:54:39;18.00;81.30
51486;DHT22;37565;51.352;6.412;2022-12-18T20:57:08;18.00;81.30
51486;DHT22;37565;51.352;6.412;2022-12-18T20:59:36;17.90;81.20
51486;DHT22;37565;51.352;6.412;2022-12-18T21:02:12;17.90;81.40
51486;DHT22;37565;51.352;6.412;2022-12-18T21:04:40;18.00;81.40
51486;DHT22;37565;51.352;6.412;2022-12-18T21:07:08;18.00;81.50
51486;DHT22;37565;51.352;6.412;2022-12-18T21:09:36;17.90;81.40
51486;DHT22;37565;51.352;6.412;2022-12-18T21:12:05;18.00;81.20
51486;DHT22;37565;51.352;6.412;2022-12-18T21:14:52;18.10;81.10
51486;DHT22;37565;51.352;6.412;2022-12-18T21:17:20;18.20;80.70
51486;DHT22;37565;51.352;6.412;2022-12-18T21:19:48;18.20;80.50
51486;DHT22;37565;51.352;6.412;2022-12-18T21:22:16;18.10;80.80
51486;DHT22;37565;51.352;6.412;2022-12-18T21:24:44;18.10;81.10
51486;DHT22;37565;51.352;6.412;2022-12-18T21:27:12;18.20;81.20
51486;DHT22;37565;51.352;6.412;2022-12-18T21:29:44;18.10;80.70
51486;DHT22;37565;51.352;6.412;2022-12-18T21:32:14;18.10;80.90
51486;DHT22;37565;51.352;6.412;2022-12-18T21:34:42;18.00;80.80
51486;DHT22;37565;51.352;6.412;2022-12-18T21:37:14;17.90;81.00
51486;DHT22;37565;51.352;6.412;2022-12-18T21:39:42;17.90;81.20
51486;DHT22;37565;51.352;6.412;2022-12-18T21:42:11;17.90;81.30
51486;DHT22;37565;51.352;6.412;2022-12-18T21:44:56;18.00;81.10
51486;DHT22;37565;51.352;6.412;2022-12-18T21:47:26;18.10;80.70
51486;DHT22;37565;51.352;6.412;2022-12-18T21:49:53;18.10;80.70
51486;DHT22;37565;51.352;6.412;2022-12-18T21:52:21;18.10;80.70
51486;DHT22;37565;51.352;6.412;2022-12-18T21:54:58;18.20;80.30
51486;DHT22;37565;51.352;6.412;2022-12-18T21:57:34;18.20;80.50
51486;DHT22;37565;51.352;6.412;2022-12-18T22:00:03;18.20;80.60
51486;DHT22;37565;51.352;6.412;2022-12-18T22:02:32;18.20;80.30
51486;DHT22;37565;51.352;6.412;2022-12-18T22:05:01;18.20;80.60
51486;DHT22;37565;51.352;6.412;2022-12-18T22:07:29;18.10;80.50
51486;DHT22;37565;51.352;6.412;2022-12-18T22:09:59;18.00;81.20
51486;DHT22;37565;51.352;6.412;2022-12-18T22:12:28;17.80;79.60
51486;DHT22;37565;51.352;6.412;2022-12-18T22:15:12;17.80;80.20
51486;DHT22;37565;51.352;6.412;2022-12-18T22:17:49;17.70;79.50
51486;DHT22;37565;51.352;6.412;2022-12-18T22:20:25;17.60;79.90
51486;DHT22;37565;51.352;6.412;2022-12-18T22:22:55;17.60;80.10
51486;DHT22;37565;51.352;6.412;2022-12-18T22:25:23;17.60;80.60
51486;DHT22;37565;51.352;6.412;2022-12-18T22:27:51;17.60;80.60
51486;DHT22;37565;51.352;6.412;2022-12-18T22:30:33;17.60;80.70
51486;DHT22;37565;51.352;6.412;2022-12-18T22:33:02;17.60;80.60
51486;DHT22;37565;51.352;6.412;2022-12-18T22:35:30;17.60;81.10
51486;DHT22;37565;51.352;6.412;2022-12-18T22:37:58;17.60;80.80
51486;DHT22;37565;51.352;6.412;2022-12-18T22:40:27;17.60;79.90
51486;DHT22;37565;51.352;6.412;2022-12-18T22:42:55;17.60;79.60
51486;DHT22;37565;51.352;6.412;2022-12-18T22:45:24;17.70;79.70
51486;DHT22;37565;51.352;6.412;2022-12-18T22:47:52;17.50;79.70
51486;DHT22;37565;51.352;6.412;2022-12-18T22:50:22;17.60;79.70
51486;DHT22;37565;51.352;6.412;2022-12-18T22:52:50;17.60;80.20
51486;DHT22;37565;51.352;6.412;2022-12-18T22:55:18;17.60;80.10
51486;DHT22;37565;51.352;6.412;2022-12-18T22:57:46;17.60;79.80
51486;DHT22;37565;51.352;6.412;2022-12-18T23:00:18;17.60;80.20
51486;DHT22;37565;51.352;6.412;2022-12-18T23:02:50;17.60;80.20
51486;DHT22;37565;51.352;6.412;2022-12-18T23:05:28;17.50;80.50
51486;DHT22;37565;51.352;6.412;2022-12-18T23:07:56;17.50;80.70
51486;DHT22;37565;51.352;6.412;2022-12-18T23:10:25;17.50;80.70
51486;DHT22;37565;51.352;6.412;2022-12-18T23:12:53;17.50;80.60
51486;DHT22;37565;51.352;6.412;2022-12-18T23:15:21;17.60;80.20
51486;DHT22;37565;51.352;6.412;2022-12-18T23:17:55;17.60;80.40
51486;DHT22;37565;51.352;6.412;2022-12-18T23:20:23;17.60;80.80
51486;DHT22;37565;51.352;6.412;2022-12-18T23:22:52;17.60;80.50
51486;DHT22;37565;51.352;6.412;2022-12-18T23:25:20;17.50;80.70
51486;DHT22;37565;51.352;6.412;2022-12-18T23:27:48;17.50;80.80
51486;DHT22;37565;51.352;6.412;2022-12-18T23:30:16;17.50;80.80
51486;DHT22;37565;51.352;6.412;2022-12-18T23:32:44;17.50;81.30
51486;DHT22;37565;51.352;6.412;2022-12-18T23:35:12;17.50;79.60
51486;DHT22;37565;51.352;6.412;2022-12-18T23:37:41;17.50;79.80
